Terminal Aerodrome Forecast
Issued by NWS Shreveport, LA

Home | Current Version | Previous Version | Text Only | Print | Product List | Glossary On
Versions: 1 2 3 4 5 6 7 8 9 10 11 12 13 14
972
FTUS44 KSHV 110545
TAFTXK
TAF
KTXK 110545Z 1106/1206 15011KT P6SM OVC045
     FM111200 18012KT P6SM SCT015 OVC025
     FM111800 18014G22KT P6SM VCSH BKN009 OVC015
     FM120000 19012KT P6SM VCSH OVC007=

USA.gov is the U.S. government's official web portal to all federal, state and local government web resources and services.